Bryant, Florida
Current Conditions -  °F | °C
As of 5:15 AM on Saturday 22 Nov 2014 (Local Time) from KOBE Reporting Station
Overcast Overcast  
Wind Chill: 70°   Ceiling: 12000
Heat Index: 70°   Visibility: 10mi
Dew Point: 64°   Wind: 7mph
Humidity: 83%   Direction: 80°E
Pressure: 30.19"   Gusts: NA
Location:  26.85°N, 80.62°W
Report Text: KOBE 221015Z AUTO 08006KT 10SM SCT034 SCT040 OVC120 21/18 A3019 RMK AO2
Loading
Personal Weather Stations






























Interactive Weather Map New forecast layout! Learn more

10-Day Weather Forecast

Advertisements
Track Severe Weather on mobile